Pagina principale
METAR-TAF:

METAR-TAF

Aeroporti :

Bartow, Florida, Stati Uniti

latitudine: 27-57N, longitudine: 081-47W, altezza: 39 m

Osservazione

Il bollettino è stato emesso 49 minuti fa, alle 12:30 UTC
Vento 5 kt da nord con raffiche fino a 11 kt
Temperature 13°C
Umidità 82%
Pressione 1015 hPa
Visibilità: 16.1 km
Nuvoloso ad un'altezza di 4700 ft

METAR: KBOW 281230Z 01005G11KT 10SM BKN047 13/10 A2997

Ora: 08:19 (13:19 UTC)


TAF: mancante

Osservazioni e previsioni meteorologiche di più di 4000 aeroporti (messaggi METAR e TAF).

Le stazioni disponibili sono rappresentate dai dischi gialli e rossi sulla carta.

Puntare il mouse per vedere il nome della stazione.

Clicca sopra per visualizzare le osservazioni e previsioni meteorologiche.

Per cambiare la mappa : fare clic sui pulsanti verdi con una croce nera per ingrandire, il pulsante verde con un trattino per diminuire, o sulla freccia verde per le mappe adiacenti.


METAR-TAF: